createdAt,value
2022-08-31T00:04:30.909Z,2.9
2022-08-31T00:10:50.928Z,2.9
2022-08-31T00:17:13.886Z,2.6
2022-08-31T00:23:33.906Z,2.6
2022-08-31T00:29:56.892Z,2.1
2022-08-31T00:36:16.873Z,2.1
2022-08-31T00:42:39.925Z,4.6
2022-08-31T00:48:59.874Z,4.6
2022-08-31T00:55:22.891Z,5.6
2022-08-31T01:01:42.996Z,5.6
2022-08-31T01:08:05.880Z,5.6
2022-08-31T01:14:25.925Z,5.6
2022-08-31T01:20:49.395Z,4.2
2022-08-31T01:27:08.871Z,4.2
2022-08-31T01:33:31.931Z,3.8
2022-08-31T01:39:51.877Z,3.8
2022-08-31T01:46:15.014Z,5
2022-08-31T01:52:34.875Z,5
2022-08-31T01:58:57.887Z,6.7
2022-08-31T02:05:17.928Z,6.7
2022-08-31T02:11:40.874Z,5.7
2022-08-31T02:18:00.938Z,5.7
2022-08-31T02:24:23.875Z,13.3
2022-08-31T02:30:43.886Z,13.3
2022-08-31T02:37:06.923Z,7.9
2022-08-31T02:43:27.019Z,7.9
2022-08-31T02:49:49.931Z,5
2022-08-31T02:56:09.881Z,5
2022-08-31T03:02:33.041Z,4.9
2022-08-31T03:08:52.926Z,4.9
2022-08-31T03:15:15.885Z,9.6
2022-08-31T03:21:35.955Z,9.6
2022-08-31T03:27:58.916Z,6.6
2022-08-31T03:34:18.887Z,6.6
2022-08-31T03:40:41.975Z,9.7
2022-08-31T03:47:01.872Z,9.7
2022-08-31T03:53:25.099Z,10.6
2022-08-31T03:59:44.921Z,10.6
2022-08-31T04:22:51.838Z,7.7
2022-08-31T04:29:14.886Z,5.2
2022-08-31T04:35:34.948Z,5.2
2022-08-31T04:41:57.943Z,5.9
2022-08-31T04:48:17.878Z,5.9
2022-08-31T04:54:40.917Z,8.5
2022-08-31T05:01:00.949Z,8.5
2022-08-31T05:07:23.894Z,21.4
2022-08-31T05:13:43.930Z,21.4
2022-08-31T05:20:06.880Z,13
2022-08-31T05:26:26.956Z,13
2022-08-31T05:32:49.908Z,13.3
2022-08-31T05:39:09.897Z,13.3
2022-08-31T05:45:32.936Z,6
2022-08-31T05:51:52.880Z,6
2022-08-31T05:58:15.946Z,12.3
2022-08-31T06:04:35.895Z,12.3
2022-08-31T06:10:58.886Z,4.4
2022-08-31T06:17:18.952Z,4.4
2022-08-31T06:23:41.882Z,7.1
2022-08-31T06:30:01.940Z,7.1
2022-08-31T06:36:24.910Z,8.6
2022-08-31T06:42:44.888Z,8.6
2022-08-31T06:49:08.525Z,44
2022-08-31T06:55:27.890Z,44
2022-08-31T07:01:51.066Z,5
2022-08-31T07:08:10.908Z,5
2022-08-31T07:14:33.922Z,21.9
2022-08-31T07:20:53.943Z,21.9
2022-08-31T07:27:16.893Z,6.2
2022-08-31T07:33:36.945Z,6.2
2022-08-31T07:40:03.486Z,4
2022-08-31T07:46:19.934Z,4
2022-08-31T07:52:42.928Z,4.6
2022-08-31T07:59:02.882Z,4.6
2022-08-31T08:05:27.127Z,3
2022-08-31T08:11:45.902Z,3
2022-08-31T08:18:08.879Z,3
2022-08-31T08:24:28.934Z,3
2022-08-31T08:30:51.883Z,4.4
2022-08-31T08:37:11.930Z,4.4
2022-08-31T08:43:34.903Z,3.9
2022-08-31T08:49:55.012Z,3.9
2022-08-31T08:56:32.609Z,4.7
2022-08-31T09:02:38.021Z,4.7
2022-08-31T09:09:00.948Z,12
2022-08-31T09:15:20.888Z,12
2022-08-31T09:21:43.900Z,5.2
2022-08-31T09:28:03.900Z,5.2
2022-08-31T09:34:26.886Z,3
2022-08-31T09:40:46.969Z,3
2022-08-31T09:47:09.925Z,8.5
2022-08-31T09:53:29.889Z,8.5
2022-08-31T09:59:52.937Z,3.4
2022-08-31T10:16:35.566Z,4.9
2022-08-31T10:22:58.434Z,7.8
2022-08-31T10:29:23.572Z,7.8
2022-08-31T10:35:40.949Z,7.8
2022-08-31T10:42:00.885Z,7.8
2022-08-31T10:48:23.896Z,2.6
2022-08-31T10:54:43.909Z,2.6
2022-08-31T11:01:06.911Z,2
2022-08-31T11:07:26.932Z,2
2022-08-31T11:13:49.893Z,15.3
2022-08-31T11:20:09.974Z,15.3
2022-08-31T11:26:33.090Z,1.9
2022-08-31T11:32:53.002Z,1.9
2022-08-31T11:39:15.923Z,1.3
2022-08-31T11:45:35.901Z,1.3
2022-08-31T11:51:58.939Z,8.5
2022-08-31T11:58:20.222Z,8.5
2022-08-31T12:04:41.893Z,10.1
2022-08-31T12:11:01.974Z,10.1
2022-08-31T12:17:24.888Z,2.7
2022-08-31T12:23:45.137Z,2.7
2022-08-31T12:30:07.896Z,3.4
2022-08-31T12:36:29.121Z,3.4
2022-08-31T12:42:51.900Z,4.1
2022-08-31T12:49:11.899Z,4.1
2022-08-31T12:55:34.919Z,2.9
2022-08-31T13:01:55.062Z,2.9
2022-08-31T13:08:17.938Z,2.2
2022-08-31T13:14:37.883Z,2.2
2022-08-31T13:21:00.942Z,1.7
2022-08-31T13:27:20.892Z,1.7
2022-08-31T13:33:43.955Z,2.7
2022-08-31T13:40:04.023Z,2.7
2022-08-31T13:46:37.849Z,2.1
2022-08-31T13:52:52.390Z,2.1
2022-08-31T13:59:09.930Z,2.5
2022-08-31T14:05:29.915Z,2.5
2022-08-31T14:11:52.887Z,3
2022-08-31T14:18:28.521Z,3
2022-08-31T14:24:35.898Z,2
2022-08-31T14:30:57.233Z,2
2022-08-31T14:37:20.152Z,2.6
2022-08-31T14:43:39.904Z,2.6
2022-08-31T14:50:02.922Z,1.6
2022-08-31T14:56:22.899Z,1.6
2022-08-31T15:02:45.977Z,0.6
2022-08-31T15:09:05.895Z,0.6
2022-08-31T15:15:28.931Z,3.1
2022-08-31T15:21:52.226Z,3.1
2022-08-31T15:28:12.042Z,2.7
2022-08-31T15:34:32.024Z,2.7
2022-08-31T15:40:55.131Z,2.5
2022-08-31T15:57:20.675Z,1.4
2022-08-31T16:03:43.551Z,1.6
2022-08-31T16:10:04.054Z,1.6
2022-08-31T16:16:27.123Z,1
2022-08-31T16:22:47.040Z,1
2022-08-31T16:29:10.050Z,2.3
2022-08-31T16:35:30.069Z,2.3
2022-08-31T16:41:53.042Z,1.3
2022-08-31T16:48:13.077Z,1.3
2022-08-31T16:54:36.050Z,2.2
2022-08-31T17:00:56.102Z,2.2
2022-08-31T17:07:19.068Z,3.4
2022-08-31T17:13:39.045Z,3.4
2022-08-31T17:20:02.601Z,1.3
2022-08-31T17:26:22.038Z,1.3
2022-08-31T17:32:45.469Z,1.4
2022-08-31T17:39:05.091Z,1.4
2022-08-31T17:45:28.041Z,0.8
2022-08-31T17:51:48.068Z,0.8
2022-08-31T17:58:11.037Z,1.7
2022-08-31T18:04:31.129Z,1.7
2022-08-31T18:10:54.062Z,2
2022-08-31T18:17:14.030Z,2
2022-08-31T18:23:37.066Z,3.4
2022-08-31T18:29:57.055Z,3.4
2022-08-31T18:36:21.017Z,7.7
2022-08-31T18:42:41.060Z,7.7
2022-08-31T18:49:12.058Z,1.2
2022-08-31T18:55:24.087Z,1.2
2022-08-31T19:01:47.244Z,1.5
2022-08-31T19:08:07.048Z,1.5
2022-08-31T19:14:30.924Z,1
2022-08-31T19:20:51.048Z,1
2022-08-31T19:27:14.063Z,1.3
2022-08-31T19:33:34.135Z,1.3
2022-08-31T19:39:58.622Z,1.3
2022-08-31T19:46:20.620Z,1.3
2022-08-31T19:52:44.094Z,1.9
2022-08-31T19:59:04.027Z,1.9
2022-08-31T20:05:27.039Z,2.5
2022-08-31T20:11:47.099Z,2.5
2022-08-31T20:18:10.039Z,1.4
2022-08-31T20:24:30.072Z,1.4
2022-08-31T20:30:53.074Z,1.2
2022-08-31T20:37:13.052Z,1.2
2022-08-31T20:43:36.063Z,1.9
2022-08-31T20:49:55.880Z,1.9
2022-08-31T20:56:18.928Z,0.7
2022-08-31T21:02:38.925Z,0.7
2022-08-31T21:09:01.898Z,1.7
2022-08-31T21:15:21.915Z,1.7
2022-08-31T21:21:44.881Z,1.6
2022-08-31T21:28:04.936Z,1.6
2022-08-31T21:50:53.800Z,3.7
2022-08-31T21:57:13.854Z,3.7
2022-08-31T22:22:47.914Z,3.5
2022-08-31T22:29:07.924Z,3.5
2022-08-31T22:35:30.894Z,3.5
2022-08-31T22:41:50.923Z,3.5
2022-08-31T22:48:13.922Z,2.7
2022-08-31T22:54:33.884Z,2.7
2022-08-31T23:00:56.923Z,2.3
2022-08-31T23:07:16.869Z,2.3
2022-08-31T23:13:39.928Z,3
2022-08-31T23:19:59.871Z,3
2022-08-31T23:26:22.911Z,1.8
2022-08-31T23:32:42.871Z,1.8
2022-08-31T23:39:05.899Z,3.4
2022-08-31T23:45:25.953Z,3.4
2022-08-31T23:51:48.918Z,2.5
2022-08-31T23:58:08.943Z,2.5
